Terminal Aerodrome Forecast
Issued by NWS Brownsville, TX

Current Version | Previous Version | Text Only | Print | Product List | Glossary Off
Versions: 1 2 3 4 5 6 7 8 9 10 11 12 13 14 15 16 17 18 19 20 21 22

000
FTUS44 KBRO 061720
TAFHRL
TAF
KHRL 061720Z 0618/0718 35013KT P6SM OVC090
     FM070400 36003KT P6SM OVC100
     FM071500 09010KT P6SM OVC090=

USA.gov is the U.S. government's official web portal to all federal, state and local government web resources and services.